Terminal Aerodrome Forecast
Issued by NWS Wichita, KS

Home | Current Version | Previous Version | Text Only | Print | Product List | Glossary On
Versions: 1 2 3 4 5 6 7 8 9 10 11 12 13 14 15 16 17 18 19 20 21 22 23 24
000
FTUS43 KICT 170131 AAA
TAFICT
TAF AMD
KICT 170131Z 1702/1724 09010KT P6SM SCT035 BKN100
     FM170400 12006KT P6SM VCTS SCT030 BKN080CB
     FM170900 13007KT 5SM BR VCTS BKN012 OVC035CB
     FM171600 16011KT P6SM SCT030 BKN050=

USA.gov is the U.S. government's official web portal to all federal, state and local government web resources and services.